NOZ1171 BIKF-ENGM
Flight info
| Callsign | NOZ1171 |
|---|---|
| Flight time | N/A |
| Altitude | 35000 |
| Route | LUTER2A LUTER DCT 64N010W DCT ISVIG/N0447F350 DCT BELGU |
| Aircraft | B738/M-SDE2E3GHIJ1LRWXY/LB1 |
Departure
| Time | 2026-05-06 16:21 |
|---|---|
| Airport | Keflavik International Airport (BIKF) |
Arrival
| Time | N/A |
|---|---|
| Airport | Oslo-Gardermoen International Airport (ENGM) |
| Time | Latitude | Longitude | Altitude | Speed | Heading |
|---|---|---|---|---|---|
| 2026-05-06 15:54 | 63.99543 | -22.62473 | 166 ft | 0 kts | 89° |
| 2026-05-06 16:05 | 63.99543 | -22.62503 | 144 ft | 3 kts | 89° |
| 2026-05-06 16:05 | 63.99543 | -22.62553 | 140 ft | 3 kts | 89° |
| 2026-05-06 16:06 | 63.99543 | -22.62604 | 142 ft | 3 kts | 89° |
| 2026-05-06 16:06 | 63.99542 | -22.62655 | 140 ft | 3 kts | 89° |
| 2026-05-06 16:06 | 63.99542 | -22.62699 | 141 ft | 2 kts | 89° |
| 2026-05-06 16:06 | 63.99536 | -22.62667 | 141 ft | 3 kts | 128° |
| 2026-05-06 16:07 | 63.99518 | -22.62653 | 138 ft | 3 kts | 172° |
| 2026-05-06 16:07 | 63.99497 | -22.62653 | 141 ft | 3 kts | 180° |
| 2026-05-06 16:07 | 63.99478 | -22.62653 | 141 ft | 2 kts | 180° |
| 2026-05-06 16:07 | 63.99456 | -22.62652 | 141 ft | 3 kts | 182° |
| 2026-05-06 16:08 | 63.99440 | -22.62666 | 141 ft | 3 kts | 202° |
| 2026-05-06 16:08 | 63.99423 | -22.62683 | 141 ft | 0 kts | 204° |
| 2026-05-06 16:11 | 63.99419 | -22.62687 | 144 ft | 2 kts | 204° |
| 2026-05-06 16:11 | 63.99391 | -22.62716 | 142 ft | 8 kts | 204° |
| 2026-05-06 16:11 | 63.99320 | -22.62745 | 141 ft | 13 kts | 181° |
| 2026-05-06 16:11 | 63.99235 | -22.62691 | 141 ft | 12 kts | 151° |
| 2026-05-06 16:12 | 63.99174 | -22.62627 | 141 ft | 9 kts | 105° |
| 2026-05-06 16:12 | 63.99173 | -22.62481 | 141 ft | 10 kts | 90° |
| 2026-05-06 16:12 | 63.99173 | -22.62300 | 141 ft | 13 kts | 90° |
| 2026-05-06 16:12 | 63.99173 | -22.62071 | 141 ft | 16 kts | 90° |
| 2026-05-06 16:13 | 63.99173 | -22.61805 | 143 ft | 17 kts | 90° |
| 2026-05-06 16:13 | 63.99173 | -22.61543 | 149 ft | 16 kts | 90° |
| 2026-05-06 16:13 | 63.99174 | -22.61291 | 155 ft | 15 kts | 89° |
| 2026-05-06 16:13 | 63.99142 | -22.61129 | 160 ft | 11 kts | 163° |
| 2026-05-06 16:14 | 63.99052 | -22.61124 | 162 ft | 15 kts | 180° |
| 2026-05-06 16:14 | 63.98927 | -22.61124 | 161 ft | 22 kts | 180° |
| 2026-05-06 16:14 | 63.98764 | -22.61124 | 162 ft | 24 kts | 180° |
| 2026-05-06 16:14 | 63.98594 | -22.61125 | 163 ft | 24 kts | 180° |
| 2026-05-06 16:15 | 63.98430 | -22.61125 | 159 ft | 24 kts | 180° |
| 2026-05-06 16:15 | 63.98260 | -22.61126 | 161 ft | 22 kts | 180° |
| 2026-05-06 16:15 | 63.98152 | -22.61084 | 159 ft | 12 kts | 128° |
| 2026-05-06 16:15 | 63.98109 | -22.60945 | 166 ft | 11 kts | 162° |
| 2026-05-06 16:16 | 63.98017 | -22.60940 | 168 ft | 16 kts | 180° |
| 2026-05-06 16:16 | 63.97884 | -22.60940 | 168 ft | 22 kts | 180° |
| 2026-05-06 16:16 | 63.97728 | -22.60940 | 168 ft | 22 kts | 180° |
| 2026-05-06 16:16 | 63.97575 | -22.60940 | 166 ft | 22 kts | 180° |
| 2026-05-06 16:17 | 63.97469 | -22.60940 | 164 ft | 24 kts | 180° |
| 2026-05-06 16:17 | 63.97293 | -22.60940 | 160 ft | 27 kts | 180° |
| 2026-05-06 16:17 | 63.97103 | -22.60941 | 153 ft | 28 kts | 180° |
| 2026-05-06 16:17 | 63.96906 | -22.60940 | 146 ft | 29 kts | 180° |
| 2026-05-06 16:18 | 63.96725 | -22.60941 | 139 ft | 24 kts | 180° |
| 2026-05-06 16:18 | 63.96566 | -22.60941 | 134 ft | 19 kts | 180° |
| 2026-05-06 16:18 | 63.96496 | -22.60937 | 134 ft | 7 kts | 169° |
| 2026-05-06 16:18 | 63.96463 | -22.60871 | 135 ft | 7 kts | 106° |
| 2026-05-06 16:19 | 63.96462 | -22.60765 | 138 ft | 7 kts | 90° |
| 2026-05-06 16:19 | 63.96462 | -22.60662 | 142 ft | 6 kts | 90° |
| 2026-05-06 16:19 | 63.96467 | -22.60561 | 143 ft | 7 kts | 59° |
| 2026-05-06 16:19 | 63.96507 | -22.60542 | 145 ft | 6 kts | 360° |
| 2026-05-06 16:20 | 63.96603 | -22.60542 | 148 ft | 37 kts | 360° |
| 2026-05-06 16:20 | 63.97079 | -22.60542 | 161 ft | 99 kts | 0° |
| 2026-05-06 16:20 | 63.97929 | -22.60521 | 174 ft | 148 kts | 2° |
| 2026-05-06 16:20 | 63.98997 | -22.60528 | 750 ft | 152 kts | 2° |
| 2026-05-06 16:21 | 64.00081 | -22.60577 | 1407 ft | 166 kts | 4° |
| 2026-05-06 16:21 | 64.01310 | -22.60577 | 1848 ft | 182 kts | 3° |
| 2026-05-06 16:21 | 64.02611 | -22.60586 | 2392 ft | 189 kts | 3° |
| 2026-05-06 16:21 | 64.03925 | -22.60576 | 3034 ft | 189 kts | 8° |
| 2026-05-06 16:22 | 64.05135 | -22.59558 | 3601 ft | 192 kts | 37° |
| 2026-05-06 16:22 | 64.06034 | -22.57238 | 4005 ft | 206 kts | 59° |
| 2026-05-06 16:22 | 64.06342 | -22.53830 | 4260 ft | 238 kts | 87° |
| 2026-05-06 16:22 | 64.06327 | -22.49998 | 5083 ft | 242 kts | 87° |
| 2026-05-06 16:23 | 64.06317 | -22.46088 | 5859 ft | 249 kts | 87° |
| 2026-05-06 16:23 | 64.06308 | -22.42075 | 6667 ft | 256 kts | 87° |
| 2026-05-06 16:23 | 64.06374 | -22.38020 | 7555 ft | 256 kts | 83° |
| 2026-05-06 16:23 | 64.06511 | -22.33950 | 8419 ft | 257 kts | 82° |
| 2026-05-06 16:24 | 64.06660 | -22.29821 | 9201 ft | 263 kts | 83° |
| 2026-05-06 16:24 | 64.06810 | -22.25611 | 10045 ft | 266 kts | 82° |
| 2026-05-06 16:24 | 64.06956 | -22.21371 | 10781 ft | 273 kts | 82° |
| 2026-05-06 16:24 | 64.07110 | -22.16869 | 11007 ft | 297 kts | 83° |
| 2026-05-06 16:25 | 64.07273 | -22.11983 | 11201 ft | 320 kts | 83° |
| 2026-05-06 16:25 | 64.07441 | -22.06774 | 11588 ft | 335 kts | 83° |
| 2026-05-06 16:25 | 64.07608 | -22.01431 | 12278 ft | 340 kts | 83° |
| 2026-05-06 16:25 | 64.07774 | -21.96011 | 12989 ft | 344 kts | 84° |
| 2026-05-06 16:26 | 64.07941 | -21.90524 | 13765 ft | 347 kts | 84° |
| 2026-05-06 16:26 | 64.08105 | -21.85063 | 14455 ft | 351 kts | 84° |
| 2026-05-06 16:26 | 64.08275 | -21.79399 | 15091 ft | 355 kts | 84° |